Time;durP1;ratioP1;P1;durP2;ratioP2;P2;SDS_P1;SDS_P2;PMS_P1;PMS_P2;Temp;Humidity;BMP_temperature;BMP_pressure;BME280_temperature;BME280_humidity;BME280_pressure;Samples;Min_cycle;Max_cycle;Signal;HPM_P1;HPM_P2
2021/06/04 00:01:22;;;;;;;10.68;5.13;;;;;;;17.22;52.10;100989.00;4876165;28;96568;-78
2021/06/04 00:03:49;;;;;;;11.27;5.57;;;;;;;17.14;51.84;100986.75;4862174;28;96940;-79
2021/06/04 00:06:15;;;;;;;9.18;5.80;;;;;;;16.95;52.62;100982.38;4861052;28;101269;-78
2021/06/04 00:08:41;;;;;;;6.93;5.47;;;;;;;16.98;52.33;100981.34;4860299;28;98405;-78
2021/06/04 00:11:15;;;;;;;10.32;5.43;;;;;;;16.94;52.96;100983.31;4860174;28;97235;-78
2021/06/04 00:14:00;;;;;;;14.23;5.82;;;;;;;16.78;53.55;100982.34;4859758;28;96778;-79
2021/06/04 00:16:30;;;;;;;10.20;5.32;;;;;;;16.80;53.19;100988.44;4874449;28;100868;-79
2021/06/04 00:18:57;;;;;;;9.35;6.47;;;;;;;16.69;53.47;100978.31;4859433;28;101718;-79
2021/06/04 00:21:29;;;;;;;8.48;5.88;;;;;;;16.64;54.18;100971.53;4874049;28;97155;-79
2021/06/04 00:23:57;;;;;;;9.38;5.97;;;;;;;16.58;54.16;100980.66;4859619;28;96750;-79
2021/06/04 00:26:23;;;;;;;11.13;5.90;;;;;;;16.55;54.00;100977.28;4858886;28;98081;-79
2021/06/04 00:28:48;;;;;;;13.23;6.38;;;;;;;16.56;54.08;100985.19;4859223;28;101211;-79
2021/06/04 00:31:14;;;;;;;9.23;5.50;;;;;;;16.58;54.19;100980.66;4858624;28;96605;-78
2021/06/04 00:33:42;;;;;;;11.50;6.40;;;;;;;16.67;53.96;100979.34;4875426;28;96937;-79
2021/06/04 00:36:08;;;;;;;13.63;5.80;;;;;;;16.57;54.32;100975.44;4859342;28;100961;-79
2021/06/04 00:38:35;;;;;;;10.10;5.70;;;;;;;16.58;54.59;100977.13;4875000;28;97967;-79
2021/06/04 00:41:07;;;;;;;8.43;5.45;;;;;;;16.51;54.06;100974.78;4859504;28;96857;-79
2021/06/04 00:43:33;;;;;;;10.10;5.40;;;;;;;16.43;54.39;100971.63;4858607;28;97670;-79
2021/06/04 00:46:01;;;;;;;11.85;5.75;;;;;;;16.38;54.81;100976.31;4858659;28;102095;-79
2021/06/04 00:48:28;;;;;;;10.00;5.75;;;;;;;16.38;54.87;100973.66;4873889;28;100182;-79
2021/06/04 00:51:03;;;;;;;9.05;5.60;;;;;;;16.36;54.93;100978.19;4859691;28;96569;-79
2021/06/04 00:53:30;;;;;;;23.60;8.05;;;;;;;16.47;54.84;100975.03;4858570;28;96993;-80
2021/06/04 00:55:57;;;;;;;15.23;7.95;;;;;;;16.47;55.05;100975.03;4858837;28;101516;-79
2021/06/04 00:58:31;;;;;;;14.43;7.45;;;;;;;16.27;55.47;100976.81;4874185;28;101250;-79
2021/06/04 01:00:58;;;;;;;11.85;6.07;;;;;;;16.25;56.02;100980.47;4859153;28;96649;-79
2021/06/04 01:03:26;;;;;;;15.90;7.60;;;;;;;16.37;55.31;100979.88;4858730;28;97040;-79
2021/06/04 01:06:23;;;;;;;20.67;8.60;;;;;;;16.42;55.05;100984.97;4859224;28;101861;-79
2021/06/04 01:09:11;;;;;;;15.27;7.93;;;;;;;16.12;55.99;100990.78;4874185;28;101746;-79
2021/06/04 01:11:55;;;;;;;18.13;8.77;;;;;;;16.14;56.00;100985.41;4877259;28;96822;-79
2021/06/04 01:14:31;;;;;;;15.50;8.07;;;;;;;16.19;55.93;100983.41;4876901;28;96954;-80
2021/06/04 01:17:05;;;;;;;11.30;8.30;;;;;;;16.18;55.82;100984.34;4862052;28;101852;-79
2021/06/04 01:19:46;;;;;;;11.50;8.25;;;;;;;15.90;56.47;100987.41;4861344;28;101586;-80
2021/06/04 01:22:23;;;;;;;23.92;10.60;;;;;;;15.99;56.44;100989.63;4877719;28;96839;-79
2021/06/04 01:24:53;;;;;;;16.67;10.35;;;;;;;15.99;56.15;100997.56;4878159;28;97068;-79
2021/06/04 01:27:37;;;;;;;12.90;9.05;;;;;;;16.01;56.17;100993.06;4892715;28;101732;-79
2021/06/04 01:30:23;;;;;;;14.93;10.35;;;;;;;15.88;56.61;100997.19;4862208;28;101391;-80
2021/06/04 01:32:54;;;;;;;14.40;7.78;;;;;;;15.91;56.53;101002.34;4862346;28;97177;-79
2021/06/04 01:35:27;;;;;;;13.90;7.13;;;;;;;15.76;57.07;100995.97;4861762;28;97130;-79
2021/06/04 01:37:54;;;;;;;14.20;6.88;;;;;;;15.68;57.15;100992.78;4861258;28;101837;-79
2021/06/04 01:40:27;;;;;;;13.57;6.95;;;;;;;15.65;57.35;100995.53;4860916;28;101000;-80
2021/06/04 01:42:57;;;;;;;8.93;6.05;;;;;;;15.60;57.15;100990.47;4861650;28;96606;-79
2021/06/04 01:45:32;;;;;;;12.18;6.13;;;;;;;15.65;57.09;101001.72;4861716;28;96761;-79
2021/06/04 01:48:09;;;;;;;11.52;6.22;;;;;;;15.56;57.52;100992.41;4877904;28;102428;-79
2021/06/04 01:50:52;;;;;;;9.00;6.32;;;;;;;15.50;57.74;100994.44;4862100;28;98716;-79
2021/06/04 01:53:29;;;;;;;11.52;5.75;;;;;;;15.46;57.59;100991.06;4861218;28;96658;-79
2021/06/04 01:56:03;;;;;;;12.32;6.00;;;;;;;15.47;57.74;100990.13;4878203;28;97095;-80
2021/06/04 01:58:52;;;;;;;7.95;5.82;;;;;;;15.44;57.59;100992.91;4861116;28;100412;-80
2021/06/04 02:01:26;;;;;;;11.82;7.07;;;;;;;15.56;56.49;100997.69;4876239;28;101794;-80
2021/06/04 02:03:52;;;;;;;9.48;6.45;;;;;;;15.58;56.91;100994.97;4861294;28;97153;-79
2021/06/04 02:06:26;;;;;;;11.70;6.47;;;;;;;15.45;58.04;100992.00;4861567;28;96762;-80
2021/06/04 02:08:55;;;;;;;17.58;6.57;;;;;;;15.39;57.65;100987.00;4877030;28;101612;-79
2021/06/04 02:11:33;;;;;;;;;;;;;;;15.31;58.41;100995.25;4862462;28;101440;-80
2021/06/04 02:14:05;;;;;;;9.88;6.68;;;;;;;15.42;57.35;100985.97;4861861;28;97140;-80
2021/06/04 02:17:12;;;;;;;12.65;7.93;;;;;;;15.35;57.81;100991.53;4861000;28;97018;-79
2021/06/04 02:19:54;;;;;;;20.13;7.03;;;;;;;15.54;57.21;100988.97;4860542;28;101497;-80
2021/06/04 02:22:55;;;;;;;16.77;7.22;;;;;;;15.21;58.77;100993.91;4862438;28;97871;-80
2021/06/04 02:25:35;;;;;;;13.30;6.93;;;;;;;15.16;58.96;100978.25;4876313;28;96740;-79
2021/06/04 02:28:40;;;;;;;12.35;7.13;;;;;;;15.25;58.85;100977.00;4861376;28;97248;-80
2021/06/04 02:31:10;;;;;;;10.38;6.72;;;;;;;15.27;58.18;100968.97;4852591;28;102071;-80
2021/06/04 02:33:48;;;;;;;12.02;5.78;;;;;;;15.23;58.78;100973.56;4875274;28;101852;-80
2021/06/04 02:36:19;;;;;;;12.60;6.93;;;;;;;15.21;58.04;100978.03;4861610;28;96941;-80
2021/06/04 02:39:04;;;;;;;10.50;6.60;;;;;;;15.10;58.51;100969.72;4876542;28;97003;-80
2021/06/04 02:41:35;;;;;;;9.70;6.45;;;;;;;15.09;57.79;100960.91;4875647;28;101263;-80
2021/06/04 02:44:10;;;;;;;10.05;6.47;;;;;;;15.10;57.85;100967.94;4876473;28;101388;-80
2021/06/04 02:46:40;;;;;;;9.82;7.00;;;;;;;15.01;57.56;100957.75;4876145;28;97081;-79
2021/06/04 02:49:08;;;;;;;12.07;7.88;;;;;;;15.13;57.60;100967.81;4861370;28;96902;-80
2021/06/04 02:52:09;;;;;;;14.93;8.63;;;;;;;15.22;56.99;100968.34;4860031;28;100788;-80
2021/06/04 02:54:41;;;;;;;16.10;8.37;;;;;;;15.17;57.02;100971.19;4875566;28;101382;-80
2021/06/04 02:57:13;;;;;;;12.90;7.90;;;;;;;15.23;56.82;100967.41;4875985;28;96836;-80
2021/06/04 02:59:40;;;;;;;;;;;;;;;15.16;57.07;100970.31;4860628;28;96852;-79
2021/06/04 03:02:20;;;;;;;13.60;6.22;;;;;;;15.12;57.15;100975.78;4860630;28;101253;-80
2021/06/04 03:04:49;;;;;;;10.05;5.95;;;;;;;15.13;57.60;100962.53;4875611;28;101759;-80
2021/06/04 03:07:28;;;;;;;10.70;6.25;;;;;;;15.14;57.48;100974.81;4861075;28;97200;-79
2021/06/04 03:09:57;;;;;;;9.00;5.65;;;;;;;15.16;57.16;100980.03;4861023;28;97173;-80
2021/06/04 03:12:27;;;;;;;8.85;6.28;;;;;;;15.14;57.29;100974.81;4859881;28;101199;-79
2021/06/04 03:14:55;;;;;;;9.88;6.38;;;;;;;15.17;56.88;100971.19;4876436;28;97947;-79
2021/06/04 03:17:25;;;;;;;17.13;6.70;;;;;;;15.24;57.22;100972.66;4860395;28;96643;-79
2021/06/04 03:19:51;;;;;;;7.65;5.85;;;;;;;15.30;56.79;100975.03;4860596;28;96766;-80
2021/06/04 03:22:31;;;;;;;11.48;6.40;;;;;;;15.38;57.23;100978.16;4859224;28;100976;-80
2021/06/04 03:25:05;;;;;;;13.27;6.65;;;;;;;15.38;56.60;100977.31;4876311;28;101952;-80
2021/06/04 03:27:32;;;;;;;14.75;7.63;;;;;;;15.40;56.80;100976.31;4875574;28;97177;-80
2021/06/04 03:29:59;;;;;;;10.15;6.65;;;;;;;15.48;56.36;100977.78;4860547;28;97019;-81
2021/06/04 03:32:27;;;;;;;12.65;6.43;;;;;;;15.46;56.47;100972.56;4874957;28;101538;-79
2021/06/04 03:34:53;;;;;;;10.77;6.30;;;;;;;15.37;56.94;100970.31;4860044;28;100859;-80
2021/06/04 03:37:20;;;;;;;11.85;6.88;;;;;;;15.47;56.90;100984.84;4876232;28;97114;-80
2021/06/04 03:39:47;;;;;;;14.27;6.57;;;;;;;15.70;56.17;100978.56;4875500;28;97767;-80
2021/06/04 03:42:24;;;;;;;11.40;6.03;;;;;;;15.67;56.25;100983.13;4875582;28;98322;-80
2021/06/04 03:44:51;;;;;;;10.40;7.25;;;;;;;15.61;56.87;100987.75;4859912;28;102039;-80
2021/06/04 03:47:18;;;;;;;14.45;7.13;;;;;;;15.77;56.18;100990.63;4859851;28;97228;-80
2021/06/04 03:49:44;;;;;;;9.90;6.93;;;;;;;15.59;56.69;100984.34;4875117;28;97291;-80
2021/06/04 03:52:12;;;;;;;12.63;6.80;;;;;;;15.57;56.80;100991.47;4875468;28;101200;-80
2021/06/04 03:54:42;;;;;;;19.75;7.20;;;;;;;15.56;56.92;100986.22;4858950;28;100657;-80
2021/06/04 03:57:11;;;;;;;12.40;7.43;;;;;;;15.69;56.71;100994.53;4875808;28;96670;-81
2021/06/04 03:59:37;;;;;;;11.82;7.10;;;;;;;15.80;56.23;100989.63;4859297;28;96888;-81
2021/06/04 04:02:07;;;;;;;17.23;7.50;;;;;;;15.74;56.77;100980.16;4859521;28;101372;-80
2021/06/04 04:04:32;;;;;;;11.60;6.70;;;;;;;15.78;56.50;100981.75;4859162;28;101326;-81
2021/06/04 04:06:58;;;;;;;12.82;7.00;;;;;;;15.75;56.56;100976.59;4860285;28;96695;-81
2021/06/04 04:09:24;;;;;;;16.60;7.18;;;;;;;15.78;56.54;100981.75;4860173;28;96784;-81
2021/06/04 04:11:51;;;;;;;13.35;6.53;;;;;;;16.00;55.81;100984.28;4857631;28;101476;-80
2021/06/04 04:14:17;;;;;;;15.52;8.02;;;;;;;15.89;56.66;100978.59;4875126;28;97467;-80
2021/06/04 04:16:43;;;;;;;11.85;7.70;;;;;;;15.88;56.38;100983.97;4859193;28;97136;-80
2021/06/04 04:19:09;;;;;;;15.50;6.65;;;;;;;15.90;56.69;100982.13;4859817;28;97118;-80
2021/06/04 04:21:35;;;;;;;48.50;9.48;;;;;;;16.07;56.32;100977.75;4858482;28;100335;-80
2021/06/04 04:24:10;;;;;;;38.88;7.95;;;;;;;16.16;56.06;100981.75;4874953;28;101112;-80
2021/06/04 04:26:39;;;;;;;25.10;7.07;;;;;;;16.43;55.91;100987.53;4859031;28;97231;-80
2021/06/04 04:29:05;;;;;;;24.42;8.40;;;;;;;16.52;55.53;100995.06;4860072;28;96989;-80
2021/06/04 04:31:33;;;;;;;19.00;8.57;;;;;;;16.65;55.13;100992.66;4858454;28;101006;-79
2021/06/04 04:33:59;;;;;;;19.00;7.95;;;;;;;16.89;54.82;100987.13;4859411;28;101654;-81
2021/06/04 04:36:28;;;;;;;13.10;6.95;;;;;;;16.89;54.92;100987.13;4890813;28;97129;-81
2021/06/04 04:38:54;;;;;;;14.75;7.55;;;;;;;17.22;54.36;100992.53;4858886;28;96938;-80
2021/06/04 04:41:20;;;;;;;13.68;7.57;;;;;;;17.31;54.13;100985.91;4874847;28;101226;-81
2021/06/04 04:43:50;;;;;;;15.50;8.40;;;;;;;17.30;53.93;100978.88;4858348;28;101000;-81
2021/06/04 04:46:18;;;;;;;13.85;7.72;;;;;;;17.35;53.49;100985.66;4862623;28;96570;-81
2021/06/04 04:48:44;;;;;;;13.32;7.50;;;;;;;17.49;53.29;100987.59;4861946;28;97186;-81
2021/06/04 04:51:10;;;;;;;12.27;7.85;;;;;;;17.75;52.95;100988.88;4862421;28;101587;-81
2021/06/04 04:53:36;;;;;;;18.70;7.60;;;;;;;17.95;52.68;100998.47;4877618;28;101198;-80
2021/06/04 04:56:04;;;;;;;17.67;8.00;;;;;;;18.05;52.44;101004.97;4878351;28;97170;-80
2021/06/04 04:58:29;;;;;;;8.82;7.65;;;;;;;18.18;51.84;101002.53;4862626;28;97073;-80
2021/06/04 05:00:56;;;;;;;10.40;7.70;;;;;;;18.30;51.37;101001.84;4864666;28;101707;-81
2021/06/04 05:03:22;;;;;;;12.70;8.63;;;;;;;18.46;51.13;101003.63;4854316;28;101409;-81
2021/06/04 05:05:48;;;;;;;15.35;7.45;;;;;;;18.64;50.64;100999.94;4861328;28;97453;-81
2021/06/04 05:08:14;;;;;;;13.63;7.43;;;;;;;18.76;50.42;101012.59;4892088;28;96877;-81
2021/06/04 05:10:40;;;;;;;9.57;6.93;;;;;;;18.88;50.57;101002.16;4866073;28;101494;-81
2021/06/04 05:13:08;;;;;;;8.93;7.28;;;;;;;18.91;50.43;101007.31;4871489;28;101808;-81
2021/06/04 05:15:36;;;;;;;9.82;7.30;;;;;;;19.21;50.09;101002.00;4877050;28;96713;-81
2021/06/04 05:18:02;;;;;;;11.02;7.70;;;;;;;19.21;49.73;100997.53;4877871;28;96882;-81
2021/06/04 05:20:28;;;;;;;8.20;7.03;;;;;;;19.53;49.61;101001.88;4874976;28;101959;-81
2021/06/04 05:22:56;;;;;;;10.23;6.93;;;;;;;19.89;49.11;100994.28;4883534;28;98008;-81
2021/06/04 05:25:25;;;;;;;9.55;6.93;;;;;;;20.21;48.48;100996.75;4896072;28;96791;-81
2021/06/04 05:27:51;;;;;;;20.40;7.65;;;;;;;20.29;48.23;100996.25;4865468;28;97402;-80
2021/06/04 05:30:23;;;;;;;13.75;6.75;;;;;;;20.52;47.59;100993.00;4860945;28;101434;-80
2021/06/04 05:32:48;;;;;;;8.52;6.43;;;;;;;20.65;47.01;100993.03;4860501;28;101469;-80
2021/06/04 05:35:14;;;;;;;8.98;6.50;;;;;;;20.75;47.17;100988.81;4845874;28;97234;-80
2021/06/04 05:37:40;;;;;;;8.82;6.43;;;;;;;21.03;46.80;100982.50;4873854;28;96732;-81
2021/06/04 05:40:09;;;;;;;17.92;7.07;;;;;;;21.50;46.05;100979.38;4863403;28;101820;-80
2021/06/04 05:42:35;;;;;;;14.95;6.40;;;;;;;21.98;45.16;100980.41;4876354;28;101117;-81
2021/06/04 05:45:00;;;;;;;10.18;6.82;;;;;;;22.31;44.54;100985.19;4868974;28;96982;-81
2021/06/04 05:47:26;;;;;;;10.63;6.15;;;;;;;23.03;43.28;100982.53;4880228;28;97133;-81
2021/06/04 05:49:52;;;;;;;9.38;6.63;;;;;;;23.88;42.05;100987.59;4879024;28;97672;-81
2021/06/04 05:52:17;;;;;;;9.73;7.90;;;;;;;24.84;40.14;100984.25;4845538;28;101688;-81
2021/06/04 05:54:45;;;;;;;8.40;6.00;;;;;;;25.17;39.49;100984.25;4862750;28;97121;-82
2021/06/04 05:57:12;;;;;;;9.93;6.00;;;;;;;26.09;38.02;100979.81;4876643;28;97051;-82
2021/06/04 05:59:37;;;;;;;10.48;5.22;;;;;;;26.86;37.26;100984.47;4875741;28;101870;-82
2021/06/04 06:02:03;;;;;;;12.07;7.32;;;;;;;27.92;35.42;100996.06;4860094;28;101156;-80
2021/06/04 06:04:29;;;;;;;9.07;4.88;;;;;;;28.43;34.31;100985.75;4892228;28;97191;-82
2021/06/04 06:06:54;;;;;;;7.65;4.97;;;;;;;29.11;33.38;100988.78;4876644;28;97276;-82
2021/06/04 06:09:21;;;;;;;6.60;4.97;;;;;;;29.51;32.79;100978.44;4876877;28;101124;-82
2021/06/04 06:11:48;;;;;;;7.47;4.72;;;;;;;29.72;32.19;100983.47;4862220;28;101195;-82
2021/06/04 06:14:14;;;;;;;7.43;5.20;;;;;;;30.23;31.78;100985.25;4862783;28;96822;-82
2021/06/04 06:16:40;;;;;;;8.93;4.82;;;;;;;30.40;31.09;100997.00;4879002;28;96815;-80
2021/06/04 06:19:07;;;;;;;8.95;5.43;;;;;;;30.86;30.73;100992.03;4862656;28;101532;-82
2021/06/04 06:21:33;;;;;;;8.35;4.68;;;;;;;30.83;30.89;100988.78;4874221;28;101574;-82
2021/06/04 06:23:59;;;;;;;7.53;4.88;;;;;;;31.17;29.89;100990.50;4872559;28;97155;-82
2021/06/04 06:26:28;;;;;;;6.72;3.97;;;;;;;30.66;30.88;100990.59;4857443;28;97014;-82
2021/06/04 06:28:55;;;;;;;4.93;4.10;;;;;;;29.45;32.56;100992.59;4891642;28;98525;-81
2021/06/04 06:31:27;;;;;;;10.10;4.55;;;;;;;31.25;30.07;100976.94;4874894;28;100266;-81
2021/06/04 06:33:53;;;;;;;6.78;3.95;;;;;;;32.36;28.22;100987.78;4875619;28;96858;-83
2021/06/04 06:36:26;;;;;;;11.13;5.70;;;;;;;32.40;28.19;100985.56;4874472;28;97024;-81
2021/06/04 06:38:53;;;;;;;4.72;4.07;;;;;;;32.64;28.06;100984.63;4870004;28;98141;-82
2021/06/04 06:41:18;;;;;;;7.90;4.20;;;;;;;31.62;28.78;100989.09;4871993;28;97526;-82
2021/06/04 06:43:48;;;;;;;4.30;3.45;;;;;;;32.47;27.93;100994.75;4870558;28;97243;-82
2021/06/04 06:46:16;;;;;;;5.30;3.47;;;;;;;33.13;27.23;100995.97;4873664;28;96925;-82
2021/06/04 06:48:43;;;;;;;8.57;3.55;;;;;;;31.68;29.08;100988.38;4877865;28;101514;-82
2021/06/04 06:51:09;;;;;;;6.78;3.53;;;;;;;32.06;29.15;100994.91;4882701;28;97924;-82
2021/06/04 06:53:36;;;;;;;6.53;3.58;;;;;;;32.82;28.17;100987.03;4892001;28;96888;-82
2021/06/04 06:56:04;;;;;;;4.97;3.40;;;;;;;32.84;27.62;101003.97;4860714;28;97291;-82
2021/06/04 06:58:29;;;;;;;8.35;3.55;;;;;;;32.95;27.62;100989.13;4878442;28;102217;-82
2021/06/04 07:00:55;;;;;;;10.48;4.22;;;;;;;31.94;29.18;100997.19;4863086;28;101177;-82
2021/06/04 07:03:26;;;;;;;8.63;4.05;;;;;;;31.96;28.90;100996.97;4871743;28;96915;-83
2021/06/04 07:05:53;;;;;;;12.55;3.83;;;;;;;32.37;27.78;100997.63;4867404;28;98362;-82
2021/06/04 07:08:18;;;;;;;6.85;3.63;;;;;;;32.68;27.46;101000.34;4890364;28;98298;-82
2021/06/04 07:10:44;;;;;;;6.70;3.53;;;;;;;32.42;27.19;100997.94;4875072;28;99455;-82
2021/06/04 07:13:13;;;;;;;7.18;3.90;;;;;;;32.16;28.03;100992.81;4873122;28;97403;-81
2021/06/04 07:15:39;;;;;;;5.40;4.13;;;;;;;31.38;28.38;100996.25;4842292;28;97399;-82
2021/06/04 07:18:06;;;;;;;4.20;3.33;;;;;;;31.02;28.55;100998.47;4873254;28;101446;-82
2021/06/04 07:20:35;;;;;;;9.98;3.65;;;;;;;31.09;28.96;100994.88;4842322;28;101304;-82
2021/06/04 07:23:03;;;;;;;5.38;2.75;;;;;;;31.99;27.89;100989.31;4873016;28;96811;-82
2021/06/04 07:25:31;;;;;;;5.22;3.30;;;;;;;32.12;27.25;100990.66;4859752;28;96909;-80
2021/06/04 07:27:57;;;;;;;6.13;2.90;;;;;;;32.49;26.96;100989.09;4891169;28;98656;-82
2021/06/04 07:30:30;;;;;;;4.85;2.60;;;;;;;31.84;27.49;100991.06;4877249;28;101638;-81
2021/06/04 07:32:57;;;;;;;7.43;2.85;;;;;;;31.19;27.95;100989.31;4862764;28;97009;-81
2021/06/04 07:35:25;;;;;;;4.30;3.22;;;;;;;30.85;27.76;100979.47;4863673;28;97363;-84
2021/06/04 07:37:51;;;;;;;7.45;3.03;;;;;;;30.89;27.67;100969.13;4878387;28;98578;-81
2021/06/04 07:40:22;;;;;;;6.13;2.85;;;;;;;31.10;27.77;100977.63;4879010;28;101209;-84
2021/06/04 07:42:49;;;;;;;3.80;2.72;;;;;;;31.40;27.00;100983.38;4878648;28;96714;-80
2021/06/04 07:45:15;;;;;;;6.38;3.03;;;;;;;31.72;27.48;100987.88;4879289;28;97178;-81
2021/06/04 07:47:41;;;;;;;4.93;2.70;;;;;;;31.80;26.82;100984.31;4862720;28;101149;-79
2021/06/04 07:50:10;;;;;;;5.10;3.00;;;;;;;32.20;26.67;100987.88;4875875;28;101204;-87
2021/06/04 07:52:37;;;;;;;5.53;3.35;;;;;;;31.88;26.64;100991.53;4878145;28;97085;-81
2021/06/04 07:55:04;;;;;;;4.50;2.72;;;;;;;32.25;26.29;100983.59;4861901;28;97588;-81
2021/06/04 07:57:31;;;;;;;8.05;2.90;;;;;;;31.82;26.70;100997.69;4878777;28;101170;-82
2021/06/04 07:59:57;;;;;;;4.60;2.70;;;;;;;32.50;25.97;100988.94;4878044;28;101448;-85
2021/06/04 08:02:22;;;;;;;3.45;2.40;;;;;;;33.18;25.89;100987.25;4860214;28;96929;-80
2021/06/04 08:04:48;;;;;;;10.57;3.03;;;;;;;33.03;25.58;100984.50;4860869;28;96835;-81
2021/06/04 08:07:14;;;;;;;4.63;3.25;;;;;;;32.78;25.85;100983.81;4869966;28;101464;-82
2021/06/04 08:09:42;;;;;;;7.65;3.20;;;;;;;31.33;26.46;100990.50;4895370;28;98021;-82
2021/06/04 08:12:09;;;;;;;6.32;2.70;;;;;;;30.64;27.52;100998.91;4894949;28;96533;-80
2021/06/04 08:14:35;;;;;;;3.58;2.40;;;;;;;30.83;27.20;100986.91;4894853;28;96898;-79
2021/06/04 08:17:01;;;;;;;3.72;2.60;;;;;;;30.49;27.40;100991.59;4861737;28;101147;-79
2021/06/04 08:19:30;;;;;;;3.45;2.30;;;;;;;30.70;26.78;100988.41;4874637;28;101638;-79
2021/06/04 08:21:56;;;;;;;5.30;2.85;;;;;;;31.37;25.94;100985.59;4874371;28;97133;-80
2021/06/04 08:24:31;;;;;;;2.78;2.35;;;;;;;32.14;25.49;100981.28;4843951;28;97309;-78
2021/06/04 08:26:58;;;;;;;6.88;2.47;;;;;;;31.96;25.80;100983.41;4874239;28;101100;-80
2021/06/04 08:29:26;;;;;;;4.95;2.50;;;;;;;32.37;24.77;100994.06;4859078;28;100848;-79
2021/06/04 08:31:52;;;;;;;5.43;2.28;;;;;;;32.17;24.85;100990.94;4875841;28;96599;-78
2021/06/04 08:34:18;;;;;;;10.00;2.30;;;;;;;31.75;24.71;100992.94;4844194;28;97158;-79
2021/06/04 08:36:44;;;;;;;4.50;2.47;;;;;;;31.46;25.14;100981.84;4858876;28;101635;-78
2021/06/04 08:39:17;;;;;;;3.75;2.40;;;;;;;31.30;25.12;100988.97;4872924;28;101356;-79
2021/06/04 08:42:21;;;;;;;2.72;2.10;;;;;;;31.69;24.83;100996.38;4870297;28;97933;-78
2021/06/04 08:44:51;;;;;;;4.95;2.35;;;;;;;32.01;24.57;100989.16;4883853;28;97075;-80
2021/06/04 08:47:31;;;;;;;4.18;2.45;;;;;;;31.18;24.85;100989.47;4888658;28;101790;-79
2021/06/04 08:50:39;;;;;;;5.43;2.27;;;;;;;30.83;25.72;100988.78;4874365;28;97635;-79
2021/06/04 08:53:17;;;;;;;2.80;2.13;;;;;;;31.28;25.03;100974.72;4873308;28;96991;-80
2021/06/04 08:56:32;;;;;;;4.05;2.42;;;;;;;31.60;23.61;100980.28;4889814;28;97181;-79
2021/06/04 08:58:59;;;;;;;5.88;2.03;;;;;;;31.77;23.44;100971.09;4842638;28;97425;-80
2021/06/04 09:01:37;;;;;;;6.57;2.60;;;;;;;31.67;23.07;100965.84;4818212;29;101113;-79
2021/06/04 09:04:12;;;;;;;3.00;2.28;;;;;;;31.42;23.94;100969.66;4825735;29;97335;-79
2021/06/04 09:06:45;;;;;;;3.72;2.30;;;;;;;31.62;23.84;100968.25;4809699;29;96862;-79
2021/06/04 09:09:18;;;;;;;6.20;2.40;;;;;;;30.87;24.20;100963.91;4818472;29;101972;-80
2021/06/04 09:11:44;;;;;;;5.47;2.40;;;;;;;30.92;24.47;100966.09;4831551;29;101610;-80
2021/06/04 09:14:10;;;;;;;5.78;2.10;;;;;;;30.66;25.31;100968.91;4799408;29;97528;-81
2021/06/04 09:16:50;;;;;;;4.38;3.00;;;;;;;30.11;25.40;100958.66;4798448;28;97176;-81
2021/06/04 09:19:20;;;;;;;;;;;;;;;29.51;26.32;100959.50;4831472;29;101435;-80
2021/06/04 09:21:47;;;;;;;4.90;2.50;;;;;;;29.57;27.04;100956.16;4833179;29;101054;-82
2021/06/04 09:24:16;;;;;;;3.88;2.42;;;;;;;29.69;26.35;100960.31;4812908;29;97085;-79
2021/06/04 09:26:42;;;;;;;6.10;2.50;;;;;;;29.95;26.40;100962.13;4826497;29;97136;-80
2021/06/04 09:29:12;;;;;;;4.60;2.72;;;;;;;29.69;26.66;100952.19;4827413;28;101789;-80
2021/06/04 09:31:37;;;;;;;;;;;;;;;28.93;27.30;100957.38;4847598;28;101041;-78
2021/06/04 09:34:17;;;;;;;8.98;2.78;;;;;;;28.65;27.78;100954.75;4880145;28;97192;-80
2021/06/04 09:36:47;;;;;;;6.97;2.50;;;;;;;28.72;27.83;100953.16;4889427;28;97344;-78
2021/06/04 09:39:34;;;;;;;5.68;2.92;;;;;;;28.74;27.47;100952.97;4872367;28;101237;-78
2021/06/04 09:42:26;;;;;;;3.85;2.45;;;;;;;28.41;27.90;100955.34;4887673;28;100347;-79
2021/06/04 09:44:56;;;;;;;10.20;2.53;;;;;;;27.80;28.96;100955.97;4861060;28;96934;-80
2021/06/04 09:47:35;;;;;;;;;;;;;;;27.98;27.99;100948.78;4861471;28;97490;-79
2021/06/04 09:50:19;;;;;;;6.45;3.33;;;;;;;28.09;29.32;100958.53;4875836;28;101224;-80
2021/06/04 09:52:45;;;;;;;5.53;2.70;;;;;;;28.51;28.63;100949.88;4878658;28;98040;-80
2021/06/04 09:55:19;;;;;;;4.22;2.90;;;;;;;28.65;27.84;100947.53;4871643;28;97385;-80
2021/06/04 09:58:00;;;;;;;3.60;2.63;;;;;;;28.20;27.92;100955.63;4861309;28;96992;-81
2021/06/04 10:00:38;;;;;;;8.38;2.50;;;;;;;28.18;27.96;100957.59;4873675;28;99164;-80
2021/06/04 10:03:15;;;;;;;4.53;2.28;;;;;;;27.99;28.35;100951.34;4867195;28;101303;-80
2021/06/04 10:05:41;;;;;;;6.18;2.50;;;;;;;28.06;28.43;100951.56;4859162;28;96957;-78
2021/06/04 10:08:27;;;;;;;6.32;2.15;;;;;;;27.91;28.00;100955.78;4858300;28;97427;-80
2021/06/04 10:11:08;;;;;;;5.10;2.60;;;;;;;27.97;27.79;100952.47;4873928;28;99484;-79
2021/06/04 10:14:06;;;;;;;8.00;2.33;;;;;;;28.03;27.56;100949.19;4870830;28;101184;-80
2021/06/04 10:17:26;;;;;;;4.57;2.42;;;;;;;28.16;27.52;100954.22;4855064;28;96911;-80
2021/06/04 10:19:30;;;;;;;6.05;2.35;;;;;;;27.98;28.17;100954.16;4874647;28;97583;-80
2021/06/04 10:22:05;;;;;;;;;;;;;;;27.86;28.45;100949.97;4878661;28;101681;-80
2021/06/04 10:24:34;;;;;;;6.10;2.95;;;;;;;27.77;28.90;100957.91;4875946;28;100972;-78
2021/06/04 10:27:05;;;;;;;2.88;2.30;;;;;;;27.56;28.81;100953.75;4872044;28;100137;-79
2021/06/04 10:29:30;;;;;;;3.13;2.30;;;;;;;27.36;28.58;100944.88;4876515;28;97192;-82
2021/06/04 10:31:59;;;;;;;5.05;2.40;;;;;;;27.03;29.38;100950.59;4859300;28;101718;-79
2021/06/04 10:34:37;;;;;;;5.57;2.60;;;;;;;26.87;29.41;100944.91;4876187;28;101310;-78
2021/06/04 10:37:06;;;;;;;6.03;2.70;;;;;;;26.98;29.25;100934.00;4875906;28;97391;-77
2021/06/04 10:39:39;;;;;;;6.57;3.60;;;;;;;27.18;29.13;100944.78;4861006;28;97095;-79
2021/06/04 10:42:28;;;;;;;9.23;2.38;;;;;;;27.06;29.88;100933.28;4874183;28;98133;-79
2021/06/04 10:45:11;;;;;;;3.30;2.35;;;;;;;26.89;29.89;100929.47;4875833;28;99720;-78
2021/06/04 10:47:42;;;;;;;10.07;2.90;;;;;;;26.98;30.07;100925.91;4860887;28;96751;-79
2021/06/04 10:50:31;;;;;;;4.85;2.63;;;;;;;26.96;30.25;100930.59;4874988;28;97165;-79
2021/06/04 10:53:24;;;;;;;6.68;2.40;;;;;;;27.16;30.15;100927.91;4875370;28;98054;-79
2021/06/04 10:56:12;;;;;;;7.30;3.10;;;;;;;27.30;30.37;100922.91;4875734;28;97905;-80
2021/06/04 10:58:42;;;;;;;6.57;3.25;;;;;;;27.37;29.84;100923.16;4859758;28;97159;-79
2021/06/04 11:01:12;;;;;;;6.05;2.65;;;;;;;27.43;30.28;100921.72;4843279;28;97209;-79
2021/06/04 11:03:51;;;;;;;4.72;2.30;;;;;;;27.45;30.11;100920.59;4875349;28;98136;-79
2021/06/04 11:06:17;;;;;;;7.32;2.88;;;;;;;27.29;30.06;100920.38;4844052;28;101762;-79
2021/06/04 11:08:46;;;;;;;2.45;2.25;;;;;;;27.18;30.03;100918.69;4877745;28;96822;-79
2021/06/04 11:11:54;;;;;;;5.03;2.60;;;;;;;27.20;30.02;100915.81;4875740;28;97307;-79
2021/06/04 11:14:48;;;;;;;3.72;2.45;;;;;;;27.16;30.48;100914.44;4831226;28;101517;-79
2021/06/04 11:17:44;;;;;;;4.90;2.80;;;;;;;27.06;30.32;100909.03;4875960;28;98245;-78
2021/06/04 11:20:21;;;;;;;3.40;2.45;;;;;;;27.04;30.69;100911.88;4874269;28;97072;-78
2021/06/04 11:22:53;;;;;;;7.40;2.58;;;;;;;26.93;31.39;100908.50;4891615;28;97119;-79
2021/06/04 11:25:31;;;;;;;7.15;4.15;;;;;;;26.85;31.12;100917.31;4874873;28;101962;-79
2021/06/04 11:28:20;;;;;;;3.78;2.47;;;;;;;26.74;31.11;100912.91;4874752;28;100831;-79
2021/06/04 11:30:50;;;;;;;5.32;2.60;;;;;;;26.73;31.33;100915.72;4891952;28;96943;-78
2021/06/04 11:33:17;;;;;;;3.33;2.33;;;;;;;26.58;31.73;100910.78;4875150;28;97439;-79
2021/06/04 11:35:51;;;;;;;4.45;2.35;;;;;;;26.72;31.92;100908.66;4871462;28;98403;-78
2021/06/04 11:38:38;;;;;;;2.88;2.33;;;;;;;26.65;31.49;100900.31;4858734;28;101633;-79
2021/06/04 11:41:17;;;;;;;5.38;2.95;;;;;;;26.67;31.16;100902.84;4874291;28;96703;-79